sensor_id;sensor_type;location;lat;lon;timestamp;P1;durP1;ratioP1;P2;durP2;ratioP2
4704;SDS011;2366;51.332;6.610;2023-07-02T00:00:57;8.15;;;3.50;;
4704;SDS011;2366;51.332;6.610;2023-07-02T00:03:26;5.18;;;3.35;;
4704;SDS011;2366;51.332;6.610;2023-07-02T00:05:52;15.67;;;2.87;;
4704;SDS011;2366;51.332;6.610;2023-07-02T00:08:19;4.20;;;3.33;;
4704;SDS011;2366;51.332;6.610;2023-07-02T00:10:45;4.33;;;3.00;;
4704;SDS011;2366;51.332;6.610;2023-07-02T00:13:10;5.27;;;3.20;;
4704;SDS011;2366;51.332;6.610;2023-07-02T00:15:36;3.60;;;3.30;;
4704;SDS011;2366;51.332;6.610;2023-07-02T00:18:01;3.97;;;2.77;;
4704;SDS011;2366;51.332;6.610;2023-07-02T00:20:27;4.60;;;3.90;;
4704;SDS011;2366;51.332;6.610;2023-07-02T00:22:52;5.50;;;3.07;;
4704;SDS011;2366;51.332;6.610;2023-07-02T00:25:19;4.90;;;3.80;;
4704;SDS011;2366;51.332;6.610;2023-07-02T00:27:45;7.53;;;3.47;;
4704;SDS011;2366;51.332;6.610;2023-07-02T00:30:10;7.50;;;3.27;;
4704;SDS011;2366;51.332;6.610;2023-07-02T00:32:36;8.50;;;3.40;;
4704;SDS011;2366;51.332;6.610;2023-07-02T00:35:01;11.40;;;3.73;;
4704;SDS011;2366;51.332;6.610;2023-07-02T00:37:27;6.60;;;3.47;;
4704;SDS011;2366;51.332;6.610;2023-07-02T00:39:52;6.80;;;3.63;;
4704;SDS011;2366;51.332;6.610;2023-07-02T00:42:18;7.77;;;3.90;;
4704;SDS011;2366;51.332;6.610;2023-07-02T00:44:44;8.93;;;3.50;;
4704;SDS011;2366;51.332;6.610;2023-07-02T00:47:11;8.13;;;3.50;;
4704;SDS011;2366;51.332;6.610;2023-07-02T00:49:36;4.50;;;3.70;;
4704;SDS011;2366;51.332;6.610;2023-07-02T00:52:02;7.50;;;3.30;;
4704;SDS011;2366;51.332;6.610;2023-07-02T00:54:29;7.25;;;4.25;;
4704;SDS011;2366;51.332;6.610;2023-07-02T00:56:55;10.35;;;3.67;;
4704;SDS011;2366;51.332;6.610;2023-07-02T00:59:21;5.20;;;3.70;;
4704;SDS011;2366;51.332;6.610;2023-07-02T01:01:46;6.13;;;4.30;;
4704;SDS011;2366;51.332;6.610;2023-07-02T01:04:16;11.27;;;4.10;;
4704;SDS011;2366;51.332;6.610;2023-07-02T01:06:43;6.43;;;3.85;;
4704;SDS011;2366;51.332;6.610;2023-07-02T01:09:10;4.47;;;3.55;;
4704;SDS011;2366;51.332;6.610;2023-07-02T01:11:55;9.90;;;3.63;;
4704;SDS011;2366;51.332;6.610;2023-07-02T01:14:41;11.25;;;3.53;;
4704;SDS011;2366;51.332;6.610;2023-07-02T01:17:11;5.70;;;3.72;;
4704;SDS011;2366;51.332;6.610;2023-07-02T01:19:45;10.60;;;4.73;;
4704;SDS011;2366;51.332;6.610;2023-07-02T01:22:11;6.13;;;3.47;;
4704;SDS011;2366;51.332;6.610;2023-07-02T01:24:40;13.25;;;5.10;;
4704;SDS011;2366;51.332;6.610;2023-07-02T01:27:06;10.05;;;4.50;;
4704;SDS011;2366;51.332;6.610;2023-07-02T01:29:31;7.90;;;4.03;;
4704;SDS011;2366;51.332;6.610;2023-07-02T01:31:57;9.97;;;4.90;;
4704;SDS011;2366;51.332;6.610;2023-07-02T01:34:22;8.50;;;4.40;;
4704;SDS011;2366;51.332;6.610;2023-07-02T01:36:48;8.37;;;5.27;;
4704;SDS011;2366;51.332;6.610;2023-07-02T01:39:14;9.50;;;5.03;;
4704;SDS011;2366;51.332;6.610;2023-07-02T01:41:54;18.17;;;4.68;;
4704;SDS011;2366;51.332;6.610;2023-07-02T01:44:21;13.80;;;6.20;;
4704;SDS011;2366;51.332;6.610;2023-07-02T01:46:47;8.38;;;4.90;;
4704;SDS011;2366;51.332;6.610;2023-07-02T01:49:17;8.38;;;5.60;;
4704;SDS011;2366;51.332;6.610;2023-07-02T01:51:53;9.43;;;5.80;;
4704;SDS011;2366;51.332;6.610;2023-07-02T01:54:20;9.25;;;4.57;;
4704;SDS011;2366;51.332;6.610;2023-07-02T01:56:47;12.02;;;6.22;;
4704;SDS011;2366;51.332;6.610;2023-07-02T01:59:13;19.65;;;6.95;;
4704;SDS011;2366;51.332;6.610;2023-07-02T02:01:39;12.03;;;6.30;;
4704;SDS011;2366;51.332;6.610;2023-07-02T02:04:07;13.88;;;6.90;;
4704;SDS011;2366;51.332;6.610;2023-07-02T02:06:34;13.65;;;6.80;;
4704;SDS011;2366;51.332;6.610;2023-07-02T02:09:00;14.73;;;6.50;;
4704;SDS011;2366;51.332;6.610;2023-07-02T02:11:25;18.50;;;6.75;;
4704;SDS011;2366;51.332;6.610;2023-07-02T02:13:52;15.18;;;5.78;;
4704;SDS011;2366;51.332;6.610;2023-07-02T02:16:17;13.47;;;6.53;;
4704;SDS011;2366;51.332;6.610;2023-07-02T02:18:43;12.40;;;5.93;;
4704;SDS011;2366;51.332;6.610;2023-07-02T02:21:08;11.97;;;6.57;;
4704;SDS011;2366;51.332;6.610;2023-07-02T02:23:34;15.43;;;7.30;;
4704;SDS011;2366;51.332;6.610;2023-07-02T02:25:59;10.97;;;7.37;;
4704;SDS011;2366;51.332;6.610;2023-07-02T02:28:25;18.07;;;6.90;;
4704;SDS011;2366;51.332;6.610;2023-07-02T02:30:50;16.17;;;8.13;;
4704;SDS011;2366;51.332;6.610;2023-07-02T02:33:16;17.53;;;8.33;;
4704;SDS011;2366;51.332;6.610;2023-07-02T02:35:41;10.23;;;6.33;;
4704;SDS011;2366;51.332;6.610;2023-07-02T02:38:06;15.00;;;7.60;;
4704;SDS011;2366;51.332;6.610;2023-07-02T02:40:32;26.97;;;8.43;;
4704;SDS011;2366;51.332;6.610;2023-07-02T02:42:57;19.10;;;10.10;;
4704;SDS011;2366;51.332;6.610;2023-07-02T02:45:22;20.80;;;9.10;;
4704;SDS011;2366;51.332;6.610;2023-07-02T02:47:48;21.63;;;8.33;;
4704;SDS011;2366;51.332;6.610;2023-07-02T02:50:13;20.33;;;9.40;;
4704;SDS011;2366;51.332;6.610;2023-07-02T02:52:39;20.90;;;9.20;;
4704;SDS011;2366;51.332;6.610;2023-07-02T02:55:05;18.40;;;9.60;;
4704;SDS011;2366;51.332;6.610;2023-07-02T02:57:31;15.18;;;9.10;;
4704;SDS011;2366;51.332;6.610;2023-07-02T02:59:57;15.43;;;8.80;;
4704;SDS011;2366;51.332;6.610;2023-07-02T03:02:23;15.00;;;8.10;;
4704;SDS011;2366;51.332;6.610;2023-07-02T03:04:48;20.93;;;10.10;;
4704;SDS011;2366;51.332;6.610;2023-07-02T03:07:14;15.87;;;9.20;;
4704;SDS011;2366;51.332;6.610;2023-07-02T03:09:40;22.60;;;10.05;;
4704;SDS011;2366;51.332;6.610;2023-07-02T03:12:06;23.43;;;9.33;;
4704;SDS011;2366;51.332;6.610;2023-07-02T03:14:31;26.47;;;11.83;;
4704;SDS011;2366;51.332;6.610;2023-07-02T03:16:57;37.93;;;9.23;;
4704;SDS011;2366;51.332;6.610;2023-07-02T03:19:23;25.10;;;10.10;;
4704;SDS011;2366;51.332;6.610;2023-07-02T03:21:48;26.83;;;10.80;;
4704;SDS011;2366;51.332;6.610;2023-07-02T03:24:14;19.73;;;10.30;;
4704;SDS011;2366;51.332;6.610;2023-07-02T03:26:40;20.57;;;8.97;;
4704;SDS011;2366;51.332;6.610;2023-07-02T03:29:06;25.25;;;11.90;;
4704;SDS011;2366;51.332;6.610;2023-07-02T03:31:31;25.45;;;11.95;;
4704;SDS011;2366;51.332;6.610;2023-07-02T03:33:57;17.80;;;9.93;;
4704;SDS011;2366;51.332;6.610;2023-07-02T03:36:22;24.50;;;10.73;;
4704;SDS011;2366;51.332;6.610;2023-07-02T03:38:48;16.33;;;8.70;;
4704;SDS011;2366;51.332;6.610;2023-07-02T03:41:13;20.90;;;10.90;;
4704;SDS011;2366;51.332;6.610;2023-07-02T03:43:38;28.27;;;11.00;;
4704;SDS011;2366;51.332;6.610;2023-07-02T03:46:04;22.03;;;10.23;;
4704;SDS011;2366;51.332;6.610;2023-07-02T03:48:29;26.87;;;10.37;;
4704;SDS011;2366;51.332;6.610;2023-07-02T03:50:55;15.23;;;10.83;;
4704;SDS011;2366;51.332;6.610;2023-07-02T03:53:20;21.47;;;9.03;;
4704;SDS011;2366;51.332;6.610;2023-07-02T03:55:45;36.30;;;12.33;;
4704;SDS011;2366;51.332;6.610;2023-07-02T03:58:11;24.07;;;11.70;;
4704;SDS011;2366;51.332;6.610;2023-07-02T04:00:36;26.57;;;10.77;;
4704;SDS011;2366;51.332;6.610;2023-07-02T04:03:02;22.10;;;10.73;;
4704;SDS011;2366;51.332;6.610;2023-07-02T04:05:27;21.30;;;10.97;;
4704;SDS011;2366;51.332;6.610;2023-07-02T04:07:53;29.30;;;11.73;;
4704;SDS011;2366;51.332;6.610;2023-07-02T04:10:18;20.20;;;11.10;;
4704;SDS011;2366;51.332;6.610;2023-07-02T04:12:44;18.57;;;10.07;;
4704;SDS011;2366;51.332;6.610;2023-07-02T04:15:09;39.03;;;11.70;;
4704;SDS011;2366;51.332;6.610;2023-07-02T04:17:35;19.97;;;10.23;;
4704;SDS011;2366;51.332;6.610;2023-07-02T04:20:01;30.63;;;12.30;;
4704;SDS011;2366;51.332;6.610;2023-07-02T04:22:28;33.03;;;11.40;;
4704;SDS011;2366;51.332;6.610;2023-07-02T04:24:54;22.00;;;11.00;;
4704;SDS011;2366;51.332;6.610;2023-07-02T04:27:19;24.37;;;11.47;;
4704;SDS011;2366;51.332;6.610;2023-07-02T04:29:44;24.10;;;10.83;;
4704;SDS011;2366;51.332;6.610;2023-07-02T04:32:10;26.53;;;11.63;;
4704;SDS011;2366;51.332;6.610;2023-07-02T04:34:35;26.47;;;13.37;;
4704;SDS011;2366;51.332;6.610;2023-07-02T04:37:02;29.23;;;12.20;;
4704;SDS011;2366;51.332;6.610;2023-07-02T04:39:28;22.75;;;12.20;;
4704;SDS011;2366;51.332;6.610;2023-07-02T04:41:54;20.20;;;11.33;;
4704;SDS011;2366;51.332;6.610;2023-07-02T04:44:19;19.00;;;10.47;;
4704;SDS011;2366;51.332;6.610;2023-07-02T04:46:47;23.95;;;11.00;;
4704;SDS011;2366;51.332;6.610;2023-07-02T04:49:13;32.95;;;11.73;;
4704;SDS011;2366;51.332;6.610;2023-07-02T04:51:39;31.97;;;13.20;;
4704;SDS011;2366;51.332;6.610;2023-07-02T04:54:05;22.87;;;12.20;;
4704;SDS011;2366;51.332;6.610;2023-07-02T04:56:30;21.30;;;11.50;;
4704;SDS011;2366;51.332;6.610;2023-07-02T04:58:56;28.70;;;13.20;;
4704;SDS011;2366;51.332;6.610;2023-07-02T05:01:21;26.83;;;12.40;;
4704;SDS011;2366;51.332;6.610;2023-07-02T05:03:46;33.70;;;13.70;;
4704;SDS011;2366;51.332;6.610;2023-07-02T05:06:12;28.13;;;11.80;;
4704;SDS011;2366;51.332;6.610;2023-07-02T05:08:37;28.90;;;14.50;;
4704;SDS011;2366;51.332;6.610;2023-07-02T05:11:02;22.53;;;12.07;;
4704;SDS011;2366;51.332;6.610;2023-07-02T05:13:28;28.87;;;12.60;;
4704;SDS011;2366;51.332;6.610;2023-07-02T05:15:53;41.17;;;13.60;;
4704;SDS011;2366;51.332;6.610;2023-07-02T05:18:19;25.07;;;13.90;;
4704;SDS011;2366;51.332;6.610;2023-07-02T05:20:44;35.00;;;14.83;;
4704;SDS011;2366;51.332;6.610;2023-07-02T05:23:09;18.20;;;11.63;;
4704;SDS011;2366;51.332;6.610;2023-07-02T05:25:35;30.20;;;13.20;;
4704;SDS011;2366;51.332;6.610;2023-07-02T05:28:00;22.90;;;11.57;;
4704;SDS011;2366;51.332;6.610;2023-07-02T05:30:26;28.83;;;13.43;;
4704;SDS011;2366;51.332;6.610;2023-07-02T05:32:51;27.93;;;13.63;;
4704;SDS011;2366;51.332;6.610;2023-07-02T05:35:16;26.87;;;14.00;;
4704;SDS011;2366;51.332;6.610;2023-07-02T05:37:42;24.43;;;13.70;;
4704;SDS011;2366;51.332;6.610;2023-07-02T05:40:08;24.17;;;13.20;;
4704;SDS011;2366;51.332;6.610;2023-07-02T05:42:35;24.67;;;13.67;;
4704;SDS011;2366;51.332;6.610;2023-07-02T05:45:01;29.73;;;13.43;;
4704;SDS011;2366;51.332;6.610;2023-07-02T05:47:26;28.90;;;14.37;;
4704;SDS011;2366;51.332;6.610;2023-07-02T05:49:51;25.07;;;14.53;;
4704;SDS011;2366;51.332;6.610;2023-07-02T05:52:17;26.53;;;13.73;;
4704;SDS011;2366;51.332;6.610;2023-07-02T05:54:43;33.70;;;13.20;;
4704;SDS011;2366;51.332;6.610;2023-07-02T05:57:09;32.17;;;14.10;;
4704;SDS011;2366;51.332;6.610;2023-07-02T05:59:34;24.07;;;12.83;;
4704;SDS011;2366;51.332;6.610;2023-07-02T06:02:00;24.60;;;11.50;;
4704;SDS011;2366;51.332;6.610;2023-07-02T06:04:25;31.10;;;13.10;;
4704;SDS011;2366;51.332;6.610;2023-07-02T06:06:51;24.60;;;12.27;;
4704;SDS011;2366;51.332;6.610;2023-07-02T06:09:16;23.60;;;11.23;;
4704;SDS011;2366;51.332;6.610;2023-07-02T06:11:41;26.90;;;13.30;;
4704;SDS011;2366;51.332;6.610;2023-07-02T06:14:06;22.70;;;13.40;;
4704;SDS011;2366;51.332;6.610;2023-07-02T06:16:32;26.03;;;12.27;;
4704;SDS011;2366;51.332;6.610;2023-07-02T06:18:58;20.63;;;11.33;;
4704;SDS011;2366;51.332;6.610;2023-07-02T06:21:23;30.23;;;13.03;;
4704;SDS011;2366;51.332;6.610;2023-07-02T06:23:54;23.13;;;12.10;;
4704;SDS011;2366;51.332;6.610;2023-07-02T06:26:20;22.63;;;13.03;;
4704;SDS011;2366;51.332;6.610;2023-07-02T06:28:45;25.20;;;12.40;;
4704;SDS011;2366;51.332;6.610;2023-07-02T06:31:10;22.10;;;12.50;;
4704;SDS011;2366;51.332;6.610;2023-07-02T06:33:38;25.53;;;12.57;;
4704;SDS011;2366;51.332;6.610;2023-07-02T06:36:05;21.50;;;10.90;;
4704;SDS011;2366;51.332;6.610;2023-07-02T06:38:30;19.47;;;11.83;;
4704;SDS011;2366;51.332;6.610;2023-07-02T06:40:56;22.40;;;13.00;;
4704;SDS011;2366;51.332;6.610;2023-07-02T06:43:21;25.93;;;13.23;;
4704;SDS011;2366;51.332;6.610;2023-07-02T06:45:47;29.40;;;13.47;;
4704;SDS011;2366;51.332;6.610;2023-07-02T06:48:12;21.00;;;11.30;;
4704;SDS011;2366;51.332;6.610;2023-07-02T06:50:43;17.33;;;10.63;;
4704;SDS011;2366;51.332;6.610;2023-07-02T06:53:09;18.20;;;10.87;;
4704;SDS011;2366;51.332;6.610;2023-07-02T06:55:34;19.23;;;10.07;;
4704;SDS011;2366;51.332;6.610;2023-07-02T06:57:59;20.70;;;9.57;;
4704;SDS011;2366;51.332;6.610;2023-07-02T07:00:25;17.90;;;10.03;;
4704;SDS011;2366;51.332;6.610;2023-07-02T07:02:50;16.90;;;10.20;;
4704;SDS011;2366;51.332;6.610;2023-07-02T07:05:15;14.23;;;8.70;;
4704;SDS011;2366;51.332;6.610;2023-07-02T07:07:41;17.83;;;11.47;;
4704;SDS011;2366;51.332;6.610;2023-07-02T07:10:06;19.30;;;9.93;;
4704;SDS011;2366;51.332;6.610;2023-07-02T07:12:33;16.17;;;10.00;;
4704;SDS011;2366;51.332;6.610;2023-07-02T07:15:01;18.37;;;10.20;;
4704;SDS011;2366;51.332;6.610;2023-07-02T07:17:27;13.40;;;8.87;;
4704;SDS011;2366;51.332;6.610;2023-07-02T07:19:52;19.80;;;9.70;;
4704;SDS011;2366;51.332;6.610;2023-07-02T07:22:18;13.50;;;8.57;;
4704;SDS011;2366;51.332;6.610;2023-07-02T07:24:43;16.73;;;9.83;;
4704;SDS011;2366;51.332;6.610;2023-07-02T07:27:08;14.57;;;9.23;;
4704;SDS011;2366;51.332;6.610;2023-07-02T07:29:34;13.20;;;8.03;;
4704;SDS011;2366;51.332;6.610;2023-07-02T07:31:59;14.40;;;8.67;;
4704;SDS011;2366;51.332;6.610;2023-07-02T07:34:24;12.87;;;9.90;;
4704;SDS011;2366;51.332;6.610;2023-07-02T07:36:50;14.90;;;7.90;;
4704;SDS011;2366;51.332;6.610;2023-07-02T07:39:15;20.77;;;9.30;;
4704;SDS011;2366;51.332;6.610;2023-07-02T07:41:40;17.60;;;9.10;;
4704;SDS011;2366;51.332;6.610;2023-07-02T07:44:06;18.90;;;8.33;;
4704;SDS011;2366;51.332;6.610;2023-07-02T07:46:31;13.30;;;6.93;;
4704;SDS011;2366;51.332;6.610;2023-07-02T07:48:56;19.60;;;8.27;;
4704;SDS011;2366;51.332;6.610;2023-07-02T07:51:22;13.23;;;6.07;;
4704;SDS011;2366;51.332;6.610;2023-07-02T07:53:47;17.37;;;8.60;;
4704;SDS011;2366;51.332;6.610;2023-07-02T07:56:13;10.77;;;6.10;;
4704;SDS011;2366;51.332;6.610;2023-07-02T07:58:38;11.10;;;7.27;;
4704;SDS011;2366;51.332;6.610;2023-07-02T08:01:03;14.13;;;5.80;;
4704;SDS011;2366;51.332;6.610;2023-07-02T08:03:29;14.47;;;7.80;;
4704;SDS011;2366;51.332;6.610;2023-07-02T08:05:54;17.23;;;8.93;;
4704;SDS011;2366;51.332;6.610;2023-07-02T08:08:19;13.23;;;8.10;;
4704;SDS011;2366;51.332;6.610;2023-07-02T08:10:45;17.57;;;9.00;;
4704;SDS011;2366;51.332;6.610;2023-07-02T08:13:11;16.03;;;9.07;;
4704;SDS011;2366;51.332;6.610;2023-07-02T08:15:37;13.33;;;8.50;;
4704;SDS011;2366;51.332;6.610;2023-07-02T08:18:03;23.70;;;8.60;;
4704;SDS011;2366;51.332;6.610;2023-07-02T08:20:28;16.50;;;8.40;;
4704;SDS011;2366;51.332;6.610;2023-07-02T08:22:54;18.87;;;8.87;;
4704;SDS011;2366;51.332;6.610;2023-07-02T08:25:19;12.10;;;6.43;;
4704;SDS011;2366;51.332;6.610;2023-07-02T08:27:46;13.70;;;7.97;;
4704;SDS011;2366;51.332;6.610;2023-07-02T08:30:12;21.13;;;7.57;;
4704;SDS011;2366;51.332;6.610;2023-07-02T08:32:37;21.90;;;6.97;;
4704;SDS011;2366;51.332;6.610;2023-07-02T08:35:03;17.43;;;6.50;;
4704;SDS011;2366;51.332;6.610;2023-07-02T08:37:28;14.67;;;7.80;;
4704;SDS011;2366;51.332;6.610;2023-07-02T08:39:54;21.27;;;6.70;;
4704;SDS011;2366;51.332;6.610;2023-07-02T08:42:19;13.00;;;6.50;;
4704;SDS011;2366;51.332;6.610;2023-07-02T08:44:45;14.33;;;6.47;;
4704;SDS011;2366;51.332;6.610;2023-07-02T08:47:11;20.77;;;7.67;;
4704;SDS011;2366;51.332;6.610;2023-07-02T08:49:37;15.80;;;6.77;;
4704;SDS011;2366;51.332;6.610;2023-07-02T08:52:03;15.00;;;6.50;;
4704;SDS011;2366;51.332;6.610;2023-07-02T08:54:29;13.20;;;6.30;;
4704;SDS011;2366;51.332;6.610;2023-07-02T08:56:54;11.30;;;6.83;;
4704;SDS011;2366;51.332;6.610;2023-07-02T08:59:21;13.23;;;6.80;;
4704;SDS011;2366;51.332;6.610;2023-07-02T09:01:47;10.63;;;6.43;;
4704;SDS011;2366;51.332;6.610;2023-07-02T09:04:20;11.47;;;6.33;;
4704;SDS011;2366;51.332;6.610;2023-07-02T09:07:03;13.30;;;6.90;;
4704;SDS011;2366;51.332;6.610;2023-07-02T09:09:45;17.10;;;6.57;;
4704;SDS011;2366;51.332;6.610;2023-07-02T09:12:24;9.30;;;6.20;;
4704;SDS011;2366;51.332;6.610;2023-07-02T09:14:57;17.10;;;5.90;;
4704;SDS011;2366;51.332;6.610;2023-07-02T09:17:28;9.47;;;6.37;;
4704;SDS011;2366;51.332;6.610;2023-07-02T09:19:58;18.20;;;7.27;;
4704;SDS011;2366;51.332;6.610;2023-07-02T09:22:27;14.40;;;6.77;;
4704;SDS011;2366;51.332;6.610;2023-07-02T09:24:54;14.13;;;7.13;;
4704;SDS011;2366;51.332;6.610;2023-07-02T09:27:32;16.60;;;7.70;;
4704;SDS011;2366;51.332;6.610;2023-07-02T09:30:06;16.20;;;7.73;;
4704;SDS011;2366;51.332;6.610;2023-07-02T09:32:33;11.90;;;6.53;;
4704;SDS011;2366;51.332;6.610;2023-07-02T09:34:59;13.53;;;6.77;;
4704;SDS011;2366;51.332;6.610;2023-07-02T09:37:25;11.40;;;7.03;;
4704;SDS011;2366;51.332;6.610;2023-07-02T09:39:51;24.23;;;7.73;;
4704;SDS011;2366;51.332;6.610;2023-07-02T09:42:19;17.67;;;7.33;;
4704;SDS011;2366;51.332;6.610;2023-07-02T09:44:45;12.13;;;6.40;;
4704;SDS011;2366;51.332;6.610;2023-07-02T09:47:11;16.03;;;6.10;;
4704;SDS011;2366;51.332;6.610;2023-07-02T09:49:59;13.57;;;7.00;;
4704;SDS011;2366;51.332;6.610;2023-07-02T09:52:25;14.80;;;7.30;;
4704;SDS011;2366;51.332;6.610;2023-07-02T09:54:51;15.63;;;7.50;;
4704;SDS011;2366;51.332;6.610;2023-07-02T09:57:16;13.77;;;6.60;;
4704;SDS011;2366;51.332;6.610;2023-07-02T09:59:42;17.07;;;7.47;;
4704;SDS011;2366;51.332;6.610;2023-07-02T10:02:08;14.67;;;7.83;;
4704;SDS011;2366;51.332;6.610;2023-07-02T10:04:41;13.20;;;6.43;;
4704;SDS011;2366;51.332;6.610;2023-07-02T10:07:09;11.50;;;6.80;;
4704;SDS011;2366;51.332;6.610;2023-07-02T10:12:02;16.20;;;6.40;;
4704;SDS011;2366;51.332;6.610;2023-07-02T10:14:49;12.53;;;6.33;;
4704;SDS011;2366;51.332;6.610;2023-07-02T10:17:30;15.83;;;6.93;;
4704;SDS011;2366;51.332;6.610;2023-07-02T10:20:04;10.67;;;5.80;;
4704;SDS011;2366;51.332;6.610;2023-07-02T10:22:42;8.77;;;4.83;;
4704;SDS011;2366;51.332;6.610;2023-07-02T10:25:08;9.70;;;5.30;;
4704;SDS011;2366;51.332;6.610;2023-07-02T10:27:36;13.27;;;5.87;;
4704;SDS011;2366;51.332;6.610;2023-07-02T10:30:03;6.97;;;4.77;;
4704;SDS011;2366;51.332;6.610;2023-07-02T10:32:30;9.50;;;5.10;;
4704;SDS011;2366;51.332;6.610;2023-07-02T10:34:59;12.07;;;5.37;;
4704;SDS011;2366;51.332;6.610;2023-07-02T10:37:26;15.40;;;5.10;;
4704;SDS011;2366;51.332;6.610;2023-07-02T10:39:51;12.40;;;6.37;;
4704;SDS011;2366;51.332;6.610;2023-07-02T10:42:17;16.77;;;6.17;;
4704;SDS011;2366;51.332;6.610;2023-07-02T10:44:52;10.20;;;5.13;;
4704;SDS011;2366;51.332;6.610;2023-07-02T10:47:18;11.30;;;4.77;;
4704;SDS011;2366;51.332;6.610;2023-07-02T10:49:44;13.40;;;5.30;;
4704;SDS011;2366;51.332;6.610;2023-07-02T10:52:10;13.30;;;4.93;;
4704;SDS011;2366;51.332;6.610;2023-07-02T10:54:45;12.70;;;6.70;;
4704;SDS011;2366;51.332;6.610;2023-07-02T10:57:15;12.80;;;6.50;;
4704;SDS011;2366;51.332;6.610;2023-07-02T10:59:45;13.93;;;5.03;;
4704;SDS011;2366;51.332;6.610;2023-07-02T11:02:11;10.97;;;5.00;;
4704;SDS011;2366;51.332;6.610;2023-07-02T11:04:36;7.63;;;5.00;;
4704;SDS011;2366;51.332;6.610;2023-07-02T11:07:02;11.20;;;5.27;;
4704;SDS011;2366;51.332;6.610;2023-07-02T11:09:28;7.40;;;4.83;;
4704;SDS011;2366;51.332;6.610;2023-07-02T11:11:57;7.53;;;4.80;;
4704;SDS011;2366;51.332;6.610;2023-07-02T11:14:34;14.70;;;5.57;;
4704;SDS011;2366;51.332;6.610;2023-07-02T11:17:04;7.07;;;4.77;;
4704;SDS011;2366;51.332;6.610;2023-07-02T11:19:31;12.33;;;5.70;;
4704;SDS011;2366;51.332;6.610;2023-07-02T11:22:00;7.20;;;4.43;;
4704;SDS011;2366;51.332;6.610;2023-07-02T11:26:57;10.83;;;5.57;;
4704;SDS011;2366;51.332;6.610;2023-07-02T11:29:23;10.40;;;5.87;;
4704;SDS011;2366;51.332;6.610;2023-07-02T11:31:48;10.50;;;5.93;;
4704;SDS011;2366;51.332;6.610;2023-07-02T11:34:14;16.23;;;6.23;;
4704;SDS011;2366;51.332;6.610;2023-07-02T11:36:41;12.20;;;5.17;;
4704;SDS011;2366;51.332;6.610;2023-07-02T11:39:06;13.00;;;4.20;;
4704;SDS011;2366;51.332;6.610;2023-07-02T11:41:38;10.90;;;5.90;;
4704;SDS011;2366;51.332;6.610;2023-07-02T11:44:04;10.30;;;5.40;;
4704;SDS011;2366;51.332;6.610;2023-07-02T11:46:30;15.53;;;5.57;;
4704;SDS011;2366;51.332;6.610;2023-07-02T11:48:56;13.33;;;5.47;;
4704;SDS011;2366;51.332;6.610;2023-07-02T11:51:21;10.53;;;5.80;;
4704;SDS011;2366;51.332;6.610;2023-07-02T11:53:47;12.87;;;6.30;;
4704;SDS011;2366;51.332;6.610;2023-07-02T11:56:12;17.40;;;6.60;;
4704;SDS011;2366;51.332;6.610;2023-07-02T11:58:38;12.37;;;5.73;;
4704;SDS011;2366;51.332;6.610;2023-07-02T12:01:04;14.33;;;6.10;;
4704;SDS011;2366;51.332;6.610;2023-07-02T12:03:29;13.63;;;6.70;;
4704;SDS011;2366;51.332;6.610;2023-07-02T12:08:23;8.53;;;5.33;;
4704;SDS011;2366;51.332;6.610;2023-07-02T12:10:49;13.90;;;6.20;;
4704;SDS011;2366;51.332;6.610;2023-07-02T12:13:14;9.00;;;5.90;;
4704;SDS011;2366;51.332;6.610;2023-07-02T12:15:40;14.13;;;6.17;;
4704;SDS011;2366;51.332;6.610;2023-07-02T12:18:06;11.27;;;5.87;;
4704;SDS011;2366;51.332;6.610;2023-07-02T12:20:31;13.13;;;6.60;;
4704;SDS011;2366;51.332;6.610;2023-07-02T12:22:57;10.00;;;5.80;;
4704;SDS011;2366;51.332;6.610;2023-07-02T12:25:22;14.27;;;6.30;;
4704;SDS011;2366;51.332;6.610;2023-07-02T12:27:48;11.20;;;5.80;;
4704;SDS011;2366;51.332;6.610;2023-07-02T12:30:13;11.93;;;6.33;;
4704;SDS011;2366;51.332;6.610;2023-07-02T12:32:42;9.77;;;5.50;;
4704;SDS011;2366;51.332;6.610;2023-07-02T12:35:08;13.70;;;7.27;;
4704;SDS011;2366;51.332;6.610;2023-07-02T12:37:33;17.43;;;6.00;;
4704;SDS011;2366;51.332;6.610;2023-07-02T12:39:58;14.53;;;7.50;;
4704;SDS011;2366;51.332;6.610;2023-07-02T12:42:24;10.93;;;5.43;;
4704;SDS011;2366;51.332;6.610;2023-07-02T12:44:49;11.67;;;5.97;;
4704;SDS011;2366;51.332;6.610;2023-07-02T12:47:14;12.03;;;7.03;;
4704;SDS011;2366;51.332;6.610;2023-07-02T12:49:40;11.60;;;6.10;;
4704;SDS011;2366;51.332;6.610;2023-07-02T12:52:05;13.90;;;6.20;;
4704;SDS011;2366;51.332;6.610;2023-07-02T12:54:31;13.27;;;6.67;;
4704;SDS011;2366;51.332;6.610;2023-07-02T12:56:56;12.73;;;6.30;;
4704;SDS011;2366;51.332;6.610;2023-07-02T12:59:21;11.80;;;6.67;;
4704;SDS011;2366;51.332;6.610;2023-07-02T13:01:47;12.47;;;5.77;;
4704;SDS011;2366;51.332;6.610;2023-07-02T13:04:12;15.27;;;6.00;;
4704;SDS011;2366;51.332;6.610;2023-07-02T13:06:39;18.37;;;5.63;;
4704;SDS011;2366;51.332;6.610;2023-07-02T13:09:08;9.33;;;5.30;;
4704;SDS011;2366;51.332;6.610;2023-07-02T13:11:34;11.17;;;5.60;;
4704;SDS011;2366;51.332;6.610;2023-07-02T13:13:59;15.20;;;6.80;;
4704;SDS011;2366;51.332;6.610;2023-07-02T13:16:24;13.77;;;6.70;;
4704;SDS011;2366;51.332;6.610;2023-07-02T13:18:50;12.80;;;5.30;;
4704;SDS011;2366;51.332;6.610;2023-07-02T13:21:15;14.23;;;7.13;;
4704;SDS011;2366;51.332;6.610;2023-07-02T13:23:41;11.63;;;5.60;;
4704;SDS011;2366;51.332;6.610;2023-07-02T13:26:06;13.80;;;6.00;;
4704;SDS011;2366;51.332;6.610;2023-07-02T13:28:32;17.97;;;6.47;;
4704;SDS011;2366;51.332;6.610;2023-07-02T13:30:57;10.87;;;5.20;;
4704;SDS011;2366;51.332;6.610;2023-07-02T13:33:22;10.17;;;6.33;;
4704;SDS011;2366;51.332;6.610;2023-07-02T13:35:48;8.90;;;5.80;;
4704;SDS011;2366;51.332;6.610;2023-07-02T13:38:14;14.77;;;6.70;;
4704;SDS011;2366;51.332;6.610;2023-07-02T13:40:39;13.57;;;6.27;;
4704;SDS011;2366;51.332;6.610;2023-07-02T13:43:05;16.00;;;6.07;;
4704;SDS011;2366;51.332;6.610;2023-07-02T13:45:30;9.90;;;6.20;;
4704;SDS011;2366;51.332;6.610;2023-07-02T13:47:55;10.90;;;7.10;;
4704;SDS011;2366;51.332;6.610;2023-07-02T13:50:21;12.43;;;5.40;;
4704;SDS011;2366;51.332;6.610;2023-07-02T13:52:46;11.03;;;6.90;;
4704;SDS011;2366;51.332;6.610;2023-07-02T13:55:12;15.23;;;7.33;;
4704;SDS011;2366;51.332;6.610;2023-07-02T13:57:37;13.70;;;6.50;;
4704;SDS011;2366;51.332;6.610;2023-07-02T14:00:03;16.77;;;6.70;;
4704;SDS011;2366;51.332;6.610;2023-07-02T14:02:31;13.20;;;6.40;;
4704;SDS011;2366;51.332;6.610;2023-07-02T14:04:57;11.77;;;6.67;;
4704;SDS011;2366;51.332;6.610;2023-07-02T14:07:23;11.20;;;6.20;;
4704;SDS011;2366;51.332;6.610;2023-07-02T14:09:49;13.90;;;7.67;;
4704;SDS011;2366;51.332;6.610;2023-07-02T14:12:15;14.50;;;6.73;;
4704;SDS011;2366;51.332;6.610;2023-07-02T14:14:41;15.50;;;6.60;;
4704;SDS011;2366;51.332;6.610;2023-07-02T14:17:06;14.47;;;8.20;;
4704;SDS011;2366;51.332;6.610;2023-07-02T14:19:32;12.53;;;6.13;;
4704;SDS011;2366;51.332;6.610;2023-07-02T14:21:58;12.10;;;6.27;;
4704;SDS011;2366;51.332;6.610;2023-07-02T14:24:23;10.97;;;6.40;;
4704;SDS011;2366;51.332;6.610;2023-07-02T14:26:49;8.60;;;6.30;;
4704;SDS011;2366;51.332;6.610;2023-07-02T14:29:14;15.10;;;6.60;;
4704;SDS011;2366;51.332;6.610;2023-07-02T14:31:40;13.67;;;6.00;;
4704;SDS011;2366;51.332;6.610;2023-07-02T14:34:05;16.63;;;8.13;;
4704;SDS011;2366;51.332;6.610;2023-07-02T14:36:31;18.37;;;7.70;;
4704;SDS011;2366;51.332;6.610;2023-07-02T14:38:56;14.07;;;6.70;;
4704;SDS011;2366;51.332;6.610;2023-07-02T14:41:21;12.20;;;6.23;;
4704;SDS011;2366;51.332;6.610;2023-07-02T14:43:47;17.53;;;6.60;;
4704;SDS011;2366;51.332;6.610;2023-07-02T14:46:12;14.93;;;6.13;;
4704;SDS011;2366;51.332;6.610;2023-07-02T14:48:38;13.40;;;6.93;;
4704;SDS011;2366;51.332;6.610;2023-07-02T14:51:03;11.60;;;6.97;;
4704;SDS011;2366;51.332;6.610;2023-07-02T14:53:30;11.03;;;6.90;;
4704;SDS011;2366;51.332;6.610;2023-07-02T14:55:57;19.77;;;8.50;;
4704;SDS011;2366;51.332;6.610;2023-07-02T14:58:24;21.63;;;8.67;;
4704;SDS011;2366;51.332;6.610;2023-07-02T15:00:52;19.23;;;6.90;;
4704;SDS011;2366;51.332;6.610;2023-07-02T15:03:20;24.67;;;8.90;;